createdAt,value
2022-09-12T00:00:15.622Z,66.80
2022-09-12T00:02:17.292Z,66.90
2022-09-12T00:04:18.952Z,66.90
2022-09-12T00:06:23.435Z,67.00
2022-09-12T00:08:25.168Z,67.00
2022-09-12T00:10:26.778Z,66.80
2022-09-12T00:12:28.445Z,67.00
2022-09-12T00:14:30.147Z,67.00
2022-09-12T00:16:33.158Z,67.00
2022-09-12T00:18:34.865Z,67.10
2022-09-12T00:20:40.992Z,67.00
2022-09-12T00:22:42.608Z,67.10
2022-09-12T00:24:44.378Z,67.00
2022-09-12T00:26:45.997Z,67.10
2022-09-12T00:28:48.126Z,67.10
2022-09-12T00:30:49.874Z,67.20
2022-09-12T00:32:51.535Z,67.80
2022-09-12T00:34:53.141Z,67.00
2022-09-12T00:36:54.796Z,67.00
2022-09-12T00:38:56.447Z,67.00
2022-09-12T00:40:58.058Z,67.00
2022-09-12T00:42:59.675Z,67.10
2022-09-12T00:45:01.491Z,67.00
2022-09-12T00:47:11.286Z,67.00
2022-09-12T00:49:19.028Z,67.10
2022-09-12T00:51:20.727Z,67.00
2022-09-12T00:53:22.551Z,67.10
2022-09-12T00:55:26.217Z,67.10
2022-09-12T00:57:36.914Z,67.00
2022-09-12T00:59:41.347Z,67.00
2022-09-12T01:01:44.435Z,67.00
2022-09-12T01:03:46.151Z,67.00
2022-09-12T01:05:53.584Z,67.10
2022-09-12T01:07:56.141Z,67.10
2022-09-12T01:09:57.906Z,67.10
2022-09-12T01:12:01.297Z,67.10
2022-09-12T01:14:02.937Z,67.20
2022-09-12T01:16:05.942Z,67.00
2022-09-12T01:18:10.471Z,67.20
2022-09-12T01:20:18.197Z,67.10
2022-09-12T01:22:38.706Z,67.20
2022-09-12T01:24:55.831Z,67.30
2022-09-12T01:27:06.214Z,67.00
2022-09-12T01:29:26.599Z,67.00
2022-09-12T01:31:40.852Z,67.00
2022-09-12T01:33:48.643Z,67.00
2022-09-12T01:35:50.273Z,67.00
2022-09-12T01:38:14.855Z,67.10
2022-09-12T01:40:26.608Z,67.20
2022-09-12T01:42:28.193Z,67.30
2022-09-12T01:44:32.559Z,67.40
2022-09-12T01:46:52.902Z,67.40
2022-09-12T01:48:58.654Z,67.40
2022-09-12T01:51:12.462Z,67.40
2022-09-12T01:53:17.028Z,67.50
2022-09-12T01:55:30.056Z,67.50
2022-09-12T01:57:41.246Z,67.30
2022-09-12T01:59:45.502Z,67.20
2022-09-12T02:01:54.897Z,67.20
2022-09-12T02:04:19.955Z,67.20
2022-09-12T02:06:30.373Z,67.20
2022-09-12T02:08:35.403Z,67.50
2022-09-12T02:10:41.633Z,67.40
2022-09-12T02:12:46.327Z,67.40
2022-09-12T02:14:50.511Z,67.40
2022-09-12T02:17:05.213Z,67.20
2022-09-12T02:19:13.091Z,67.10
2022-09-12T02:21:15.896Z,67.10
2022-09-12T02:23:22.230Z,67.10
2022-09-12T02:25:25.348Z,67.20
2022-09-12T02:27:32.280Z,67.30
2022-09-12T02:29:33.941Z,67.20
2022-09-12T02:31:46.614Z,67.30
2022-09-12T02:33:51.844Z,67.20
2022-09-12T02:36:07.178Z,67.20
2022-09-12T02:38:16.343Z,67.20
2022-09-12T02:40:18.315Z,67.10
2022-09-12T02:42:20.006Z,67.20
2022-09-12T02:44:22.572Z,67.30
2022-09-12T02:46:32.401Z,67.40
2022-09-12T02:48:35.959Z,67.30
2022-09-12T02:50:37.853Z,67.50
2022-09-12T02:52:40.206Z,67.50
2022-09-12T02:54:42.429Z,67.30
2022-09-12T02:56:45.013Z,67.40
2022-09-12T02:58:47.459Z,67.30
2022-09-12T03:01:04.897Z,67.40
2022-09-12T03:03:20.711Z,67.40
2022-09-12T03:05:22.309Z,67.70
2022-09-12T03:07:28.381Z,67.40
2022-09-12T03:09:35.943Z,67.50
2022-09-12T03:11:56.495Z,67.60
2022-09-12T03:13:58.064Z,67.70
2022-09-12T03:16:05.034Z,68.50
2022-09-12T03:18:09.755Z,67.70
2022-09-12T03:20:18.215Z,67.70
2022-09-12T03:22:22.594Z,67.90
2022-09-12T03:24:35.720Z,68.00
2022-09-12T03:26:40.071Z,67.80
2022-09-12T03:28:42.340Z,67.80
2022-09-12T03:30:48.092Z,68.50
2022-09-12T03:32:50.792Z,67.80
2022-09-12T03:34:52.686Z,68.00
2022-09-12T03:36:58.147Z,68.00
2022-09-12T03:38:59.754Z,67.90
2022-09-12T03:41:01.354Z,67.90
2022-09-12T03:43:03.505Z,67.80
2022-09-12T03:45:09.296Z,68.00
2022-09-12T03:47:11.486Z,68.10
2022-09-12T03:49:13.268Z,68.00
2022-09-12T03:51:14.965Z,67.80
2022-09-12T03:53:17.417Z,68.00
2022-09-12T03:55:19.256Z,67.80
2022-09-12T03:57:20.861Z,67.80
2022-09-12T03:59:22.503Z,67.90
2022-09-12T04:01:24.157Z,67.90
2022-09-12T04:03:25.852Z,67.70
2022-09-12T04:05:27.677Z,68.00
2022-09-12T04:07:29.321Z,67.90
2022-09-12T04:09:30.906Z,67.90
2022-09-12T04:11:32.583Z,67.80
2022-09-12T04:13:34.966Z,68.00
2022-09-12T04:15:36.567Z,68.00
2022-09-12T04:17:38.173Z,68.10
2022-09-12T04:19:39.808Z,68.20
2022-09-12T04:21:41.457Z,68.10
2022-09-12T04:23:43.402Z,67.90
2022-09-12T04:25:45.021Z,67.90
2022-09-12T04:27:46.604Z,67.80
2022-09-12T04:29:48.550Z,67.90
2022-09-12T04:31:50.199Z,67.90
2022-09-12T04:33:55.247Z,68.00
2022-09-12T04:35:56.845Z,68.20
2022-09-12T04:37:58.463Z,68.10
2022-09-12T04:40:00.189Z,68.20
2022-09-12T04:42:03.111Z,68.40
2022-09-12T04:44:08.903Z,68.10
2022-09-12T04:46:11.363Z,68.10
2022-09-12T04:48:12.998Z,68.20
2022-09-12T04:50:14.887Z,68.40
2022-09-12T04:52:16.573Z,68.40
2022-09-12T04:54:18.943Z,68.50
2022-09-12T04:56:21.080Z,68.40
2022-09-12T04:58:22.685Z,68.40
2022-09-12T05:00:24.627Z,68.40
2022-09-12T05:02:26.275Z,68.20
2022-09-12T05:04:27.924Z,68.40
2022-09-12T05:06:31.078Z,68.30
2022-09-12T05:08:32.828Z,68.30
2022-09-12T05:10:34.458Z,68.20
2022-09-12T05:12:36.154Z,68.20
2022-09-12T05:14:37.806Z,68.10
2022-09-12T05:16:40.176Z,68.10
2022-09-12T05:18:42.219Z,68.20
2022-09-12T05:20:43.888Z,68.20
2022-09-12T05:22:45.471Z,68.20
2022-09-12T05:24:50.573Z,69.00
2022-09-12T05:26:52.492Z,68.40
2022-09-12T05:28:54.257Z,68.40
2022-09-12T05:31:02.005Z,68.40
2022-09-12T05:33:06.381Z,68.40
2022-09-12T05:35:07.994Z,68.20
2022-09-12T05:37:09.609Z,68.40
2022-09-12T05:39:11.274Z,68.40
2022-09-12T05:41:18.223Z,68.50
2022-09-12T05:43:21.546Z,68.60
2022-09-12T05:45:23.426Z,68.80
2022-09-12T05:47:25.008Z,68.60
2022-09-12T05:49:26.616Z,68.60
2022-09-12T05:51:29.097Z,68.60
2022-09-12T05:53:31.233Z,68.60
2022-09-12T05:55:33.113Z,68.70
2022-09-12T05:57:34.782Z,68.70
2022-09-12T05:59:36.456Z,68.80
2022-09-12T06:01:38.200Z,68.80
2022-09-12T06:03:44.459Z,68.80
2022-09-12T06:05:50.463Z,68.80
2022-09-12T06:07:52.299Z,69.10
2022-09-12T06:09:54.049Z,68.80
2022-09-12T06:11:55.906Z,68.80
2022-09-12T06:13:58.176Z,68.90
2022-09-12T06:16:08.083Z,68.80
2022-09-12T06:18:09.665Z,68.80
2022-09-12T06:20:11.254Z,69.00
2022-09-12T06:22:13.835Z,68.80
2022-09-12T06:24:17.525Z,68.80
2022-09-12T06:26:21.572Z,68.80
2022-09-12T06:28:23.319Z,68.70
2022-09-12T06:30:25.645Z,68.80
2022-09-12T06:32:29.878Z,68.70
2022-09-12T06:34:31.693Z,68.70
2022-09-12T06:36:36.090Z,68.60
2022-09-12T06:38:38.296Z,68.70
2022-09-12T06:40:46.319Z,68.80
2022-09-12T06:42:48.587Z,68.70
2022-09-12T06:45:01.446Z,68.80
2022-09-12T06:47:03.082Z,68.80
2022-09-12T06:49:05.065Z,68.60
2022-09-12T06:51:09.145Z,68.70
2022-09-12T06:53:10.781Z,68.80
2022-09-12T06:55:15.172Z,68.80
2022-09-12T06:57:20.519Z,68.70
2022-09-12T06:59:22.835Z,68.70
2022-09-12T07:01:26.154Z,68.80
2022-09-12T07:03:27.903Z,68.80
2022-09-12T07:05:29.544Z,68.80
2022-09-12T07:07:34.220Z,68.90
2022-09-12T07:09:35.855Z,68.80
2022-09-12T07:11:38.296Z,68.80
2022-09-12T07:13:40.727Z,68.90
2022-09-12T07:15:42.414Z,69.00
2022-09-12T07:17:44.012Z,69.10
2022-09-12T07:19:45.648Z,69.00
2022-09-12T07:21:47.245Z,69.10
2022-09-12T07:23:49.245Z,69.10
2022-09-12T07:25:54.441Z,69.10
2022-09-12T07:27:56.071Z,69.10
2022-09-12T07:29:57.726Z,69.00
2022-09-12T07:32:01.567Z,69.00
2022-09-12T07:34:05.643Z,69.10
2022-09-12T07:36:10.612Z,69.20
2022-09-12T07:38:12.252Z,69.10
2022-09-12T07:40:13.959Z,69.10
2022-09-12T07:42:15.600Z,69.10
2022-09-12T07:44:17.361Z,69.20
2022-09-12T07:46:19.033Z,69.00
2022-09-12T07:48:20.667Z,68.90
2022-09-12T07:50:22.391Z,68.90
2022-09-12T07:52:24.030Z,68.90
2022-09-12T07:54:25.634Z,69.10
2022-09-12T07:56:30.646Z,69.20
2022-09-12T07:58:34.397Z,69.00
2022-09-12T08:00:37.781Z,68.80
2022-09-12T08:02:39.509Z,68.80
2022-09-12T08:04:42.158Z,68.90
2022-09-12T08:06:43.771Z,69.00
2022-09-12T08:08:46.018Z,68.80
2022-09-12T08:10:47.661Z,68.70
2022-09-12T08:12:50.355Z,68.70
2022-09-12T08:14:51.975Z,68.70
2022-09-12T08:16:53.620Z,68.70
2022-09-12T08:18:55.300Z,68.50
2022-09-12T08:21:00.426Z,68.40
2022-09-12T08:23:02.040Z,68.40
2022-09-12T08:25:03.935Z,68.50
2022-09-12T08:27:06.180Z,68.40
2022-09-12T08:29:07.812Z,68.40
2022-09-12T08:31:11.501Z,68.40
2022-09-12T08:33:13.204Z,68.40
2022-09-12T08:35:15.374Z,68.40
2022-09-12T08:37:17.034Z,68.30
2022-09-12T08:39:18.676Z,68.30
2022-09-12T08:41:25.563Z,68.50
2022-09-12T08:43:33.219Z,68.30
2022-09-12T08:45:38.756Z,68.20
2022-09-12T08:47:42.950Z,68.20
2022-09-12T08:50:00.733Z,68.20
2022-09-12T08:52:07.120Z,68.10
2022-09-12T08:54:21.047Z,67.90
2022-09-12T08:56:23.146Z,67.90
2022-09-12T08:58:25.588Z,68.00
2022-09-12T09:00:41.036Z,68.00
2022-09-12T09:02:52.163Z,68.00
2022-09-12T09:05:00.936Z,68.00
2022-09-12T09:07:03.330Z,67.80
2022-09-12T09:09:17.178Z,67.80
2022-09-12T09:11:23.989Z,67.70
2022-09-12T09:13:44.510Z,67.70
2022-09-12T09:15:46.557Z,67.70
2022-09-12T09:17:51.086Z,67.70
2022-09-12T09:20:12.324Z,67.70
2022-09-12T09:22:17.657Z,67.70
2022-09-12T09:24:21.967Z,67.70
2022-09-12T09:26:28.472Z,67.50
2022-09-12T09:28:44.992Z,67.40
2022-09-12T09:30:47.295Z,67.30
2022-09-12T09:32:50.924Z,67.40
2022-09-12T09:34:52.631Z,67.30
2022-09-12T09:36:56.999Z,67.30
2022-09-12T09:39:01.700Z,67.20
2022-09-12T09:41:22.193Z,67.00
2022-09-12T09:43:25.422Z,67.00
2022-09-12T09:45:29.298Z,67.20
2022-09-12T09:47:30.927Z,66.90
2022-09-12T09:49:34.888Z,66.40
2022-09-12T09:51:39.536Z,66.60
2022-09-12T09:53:46.191Z,66.60
2022-09-12T09:55:48.860Z,66.60
2022-09-12T09:57:52.399Z,66.80
2022-09-12T09:59:54.075Z,66.50
2022-09-12T10:02:03.964Z,66.50
2022-09-12T10:04:05.709Z,66.40
2022-09-12T10:06:21.814Z,66.40
2022-09-12T10:08:28.078Z,66.30
2022-09-12T10:10:29.704Z,66.20
2022-09-12T10:12:31.457Z,66.10
2022-09-12T10:14:35.996Z,65.90
2022-09-12T10:16:53.920Z,66.20
2022-09-12T10:18:56.844Z,66.00
2022-09-12T10:20:58.525Z,65.80
2022-09-12T10:23:01.010Z,66.10
2022-09-12T10:25:02.885Z,65.60
2022-09-12T10:27:13.321Z,65.50
2022-09-12T10:29:17.274Z,65.30
2022-09-12T10:31:28.994Z,65.50
2022-09-12T10:33:41.767Z,65.30
2022-09-12T10:35:48.426Z,65.50
2022-09-12T10:37:52.508Z,65.50
2022-09-12T10:39:58.582Z,65.40
2022-09-12T10:42:01.321Z,65.00
2022-09-12T10:44:15.531Z,65.00
2022-09-12T10:46:17.204Z,65.10
2022-09-12T10:48:29.432Z,65.00
2022-09-12T10:50:31.136Z,65.20
2022-09-12T10:52:32.924Z,65.10
2022-09-12T10:54:34.556Z,64.70
2022-09-12T10:56:39.207Z,64.30
2022-09-12T10:58:59.852Z,64.80
2022-09-12T11:01:18.709Z,64.70
2022-09-12T11:03:28.057Z,64.50
2022-09-12T11:05:38.929Z,64.40
2022-09-12T11:07:54.030Z,64.40
2022-09-12T11:10:02.051Z,64.50
2022-09-12T11:12:27.001Z,64.10
2022-09-12T11:14:55.044Z,63.60
2022-09-12T11:17:12.808Z,64.00
2022-09-12T11:19:34.456Z,63.70
2022-09-12T11:21:45.086Z,63.20
2022-09-12T11:23:49.827Z,63.40
2022-09-12T11:25:57.584Z,63.50
2022-09-12T11:28:18.105Z,63.50
2022-09-12T11:30:19.750Z,63.50
2022-09-12T11:32:40.762Z,62.90
2022-09-12T11:34:55.177Z,62.80
2022-09-12T11:37:00.657Z,62.60
2022-09-12T11:39:05.496Z,62.60
2022-09-12T11:41:08.328Z,61.80
2022-09-12T11:43:22.317Z,62.60
2022-09-12T11:45:26.625Z,62.80
2022-09-12T11:47:29.021Z,62.10
2022-09-12T11:49:36.728Z,62.00
2022-09-12T11:51:53.700Z,62.30
2022-09-12T11:54:09.345Z,61.10
2022-09-12T11:56:16.720Z,61.40
2022-09-12T11:58:20.950Z,60.70
2022-09-12T12:00:33.884Z,60.80
2022-09-12T12:02:55.915Z,60.40
2022-09-12T12:05:14.226Z,60.80
2022-09-12T12:07:16.054Z,60.20
2022-09-12T12:09:18.035Z,60.00
2022-09-12T12:11:31.055Z,59.20
2022-09-12T12:13:35.547Z,59.00
2022-09-12T12:15:37.786Z,59.20
2022-09-12T12:17:39.519Z,60.00
2022-09-12T12:19:41.418Z,59.40
2022-09-12T12:21:44.055Z,59.00
2022-09-12T12:24:07.520Z,58.70
2022-09-12T12:26:29.134Z,59.20
2022-09-12T12:28:42.848Z,59.30
2022-09-12T12:31:07.243Z,59.10
2022-09-12T12:33:10.067Z,59.00
2022-09-12T12:35:31.287Z,59.20
2022-09-12T12:37:39.944Z,58.50
2022-09-12T12:39:41.576Z,58.40
2022-09-12T12:41:44.359Z,58.10
2022-09-12T12:43:53.061Z,58.60
2022-09-12T12:45:59.585Z,58.50
2022-09-12T12:48:08.341Z,58.40
2022-09-12T12:50:10.019Z,57.70
2022-09-12T12:52:17.732Z,58.00
2022-09-12T12:54:27.194Z,56.90
2022-09-12T12:56:38.933Z,57.20
2022-09-12T12:58:42.658Z,57.30
2022-09-12T13:00:45.802Z,57.10
2022-09-12T13:02:57.968Z,57.50
2022-09-12T13:05:01.033Z,56.90
2022-09-12T13:07:08.126Z,56.80
2022-09-12T13:09:28.686Z,56.70
2022-09-12T13:11:34.532Z,57.20
2022-09-12T13:13:38.907Z,56.50
2022-09-12T13:15:40.525Z,56.30
2022-09-12T13:17:43.417Z,56.40
2022-09-12T13:19:45.856Z,55.60
2022-09-12T13:21:57.492Z,55.90
2022-09-12T13:24:03.586Z,55.90
2022-09-12T13:26:11.227Z,55.80
2022-09-12T13:28:12.927Z,56.50
2022-09-12T13:30:15.380Z,56.10
2022-09-12T13:32:18.001Z,53.90
2022-09-12T13:34:24.659Z,55.10
2022-09-12T13:36:26.404Z,54.70
2022-09-12T13:38:37.832Z,53.80
2022-09-12T13:40:48.558Z,54.40
2022-09-12T13:42:53.679Z,52.20
2022-09-12T13:45:07.533Z,52.10
2022-09-12T13:47:10.445Z,53.10
2022-09-12T13:49:27.016Z,53.60
2022-09-12T13:51:29.799Z,49.40
2022-09-12T13:53:46.154Z,52.00
2022-09-12T13:55:52.503Z,52.80
2022-09-12T13:58:00.778Z,53.20
2022-09-12T14:00:04.886Z,52.80
2022-09-12T14:02:20.042Z,53.20
2022-09-12T14:04:41.885Z,52.90
2022-09-12T14:06:50.765Z,51.80
2022-09-12T14:08:53.120Z,52.60
2022-09-12T14:10:54.912Z,53.10
2022-09-12T14:12:57.285Z,53.90
2022-09-12T14:14:58.994Z,53.50
2022-09-12T14:17:00.764Z,52.70
2022-09-12T14:19:02.741Z,53.40
2022-09-12T14:21:12.707Z,53.40
2022-09-12T14:23:41.514Z,53.20
2022-09-12T14:25:45.947Z,52.80
2022-09-12T14:27:51.051Z,52.80
2022-09-12T14:29:56.384Z,52.70
2022-09-12T14:32:02.791Z,51.80
2022-09-12T14:34:24.993Z,52.10
2022-09-12T14:36:45.515Z,52.30
2022-09-12T14:38:49.746Z,52.20
2022-09-12T14:40:53.225Z,52.50
2022-09-12T14:42:58.031Z,52.20
2022-09-12T14:45:05.902Z,52.20
2022-09-12T14:47:12.448Z,52.40
2022-09-12T14:49:16.617Z,51.70
2022-09-12T14:51:25.008Z,51.80
2022-09-12T14:53:36.823Z,51.30
2022-09-12T14:55:46.298Z,51.80
2022-09-12T14:57:50.037Z,50.90
2022-09-12T14:59:52.003Z,51.60
2022-09-12T15:02:12.545Z,51.60
2022-09-12T15:04:34.172Z,51.10
2022-09-12T15:06:37.832Z,51.20
2022-09-12T15:08:41.965Z,51.20
2022-09-12T15:10:43.598Z,51.30
2022-09-12T15:12:45.307Z,50.60
2022-09-12T15:14:47.206Z,51.00
2022-09-12T15:16:48.850Z,51.00
2022-09-12T15:18:50.536Z,50.30
2022-09-12T15:20:55.206Z,50.50
2022-09-12T15:22:56.838Z,50.30
2022-09-12T15:24:58.558Z,50.50
2022-09-12T15:27:00.325Z,50.20
2022-09-12T15:29:02.448Z,50.40
2022-09-12T15:31:22.476Z,50.40
2022-09-12T15:33:25.107Z,50.50
2022-09-12T15:35:33.418Z,50.90
2022-09-12T15:37:35.071Z,50.50
2022-09-12T15:39:36.712Z,50.50
2022-09-12T15:41:38.512Z,50.20
2022-09-12T15:43:40.458Z,50.40
2022-09-12T15:45:42.473Z,50.70
2022-09-12T15:47:44.155Z,50.30
2022-09-12T15:49:45.808Z,50.00
2022-09-12T15:51:47.435Z,49.80
2022-09-12T15:53:49.911Z,49.10
2022-09-12T15:55:51.533Z,48.60
2022-09-12T15:57:53.435Z,48.40
2022-09-12T15:59:55.112Z,48.50
2022-09-12T16:01:56.822Z,48.60
2022-09-12T16:03:58.559Z,48.30
2022-09-12T16:06:01.556Z,48.20
2022-09-12T16:08:03.245Z,48.30
2022-09-12T16:10:05.112Z,48.50
2022-09-12T16:12:06.731Z,48.70
2022-09-12T16:14:08.416Z,48.40
2022-09-12T16:16:10.081Z,48.50
2022-09-12T16:18:13.085Z,48.40
2022-09-12T16:20:14.885Z,48.40
2022-09-12T16:22:16.520Z,48.40
2022-09-12T16:24:18.223Z,48.80
2022-09-12T16:26:19.837Z,49.30
2022-09-12T16:28:21.472Z,50.00
2022-09-12T16:30:23.090Z,49.20
2022-09-12T16:32:24.900Z,49.50
2022-09-12T16:34:26.614Z,49.70
2022-09-12T16:36:28.323Z,49.80
2022-09-12T16:38:30.212Z,50.00
2022-09-12T16:40:31.836Z,50.20
2022-09-12T16:42:33.515Z,50.10
2022-09-12T16:44:35.154Z,50.40
2022-09-12T16:46:36.927Z,50.40
2022-09-12T16:48:42.517Z,50.50
2022-09-12T16:50:44.399Z,50.40
2022-09-12T16:52:46.006Z,50.60
2022-09-12T16:54:47.612Z,50.70
2022-09-12T16:56:49.922Z,50.90
2022-09-12T16:58:51.910Z,51.10
2022-09-12T17:01:00.279Z,51.30
2022-09-12T17:03:02.079Z,51.30
2022-09-12T17:05:03.847Z,51.50
2022-09-12T17:07:06.108Z,51.60
2022-09-12T17:09:07.754Z,51.80
2022-09-12T17:11:19.826Z,51.90
2022-09-12T17:13:21.487Z,52.00
2022-09-12T17:15:23.440Z,52.20
2022-09-12T17:17:25.069Z,52.20
2022-09-12T17:19:29.647Z,52.30
2022-09-12T17:21:31.801Z,52.40
2022-09-12T17:23:33.588Z,52.50
2022-09-12T17:25:35.763Z,52.70
2022-09-12T17:27:37.387Z,52.80
2022-09-12T17:29:38.992Z,53.00
2022-09-12T17:31:41.212Z,52.90
2022-09-12T17:33:43.012Z,53.00
2022-09-12T17:35:44.746Z,53.10
2022-09-12T17:37:46.484Z,53.10
2022-09-12T17:39:48.167Z,53.30
2022-09-12T17:41:51.812Z,53.40
2022-09-12T17:43:57.130Z,53.30
2022-09-12T17:45:58.855Z,53.40
2022-09-12T17:48:01.877Z,53.50
2022-09-12T17:50:29.989Z,53.60
2022-09-12T17:52:25.446Z,53.70
2022-09-12T17:54:27.747Z,53.80
2022-09-12T17:56:30.713Z,53.90
2022-09-12T17:58:32.947Z,54.00
2022-09-12T18:00:53.041Z,54.10
2022-09-12T18:02:54.731Z,54.10
2022-09-12T18:04:59.191Z,54.20
2022-09-12T18:07:00.927Z,54.30
2022-09-12T18:09:06.603Z,54.50
2022-09-12T18:11:09.161Z,54.50
2022-09-12T18:13:11.029Z,54.60
2022-09-12T18:15:12.878Z,54.70
2022-09-12T18:17:14.582Z,54.70
2022-09-12T18:19:16.743Z,54.80
2022-09-12T18:21:19.782Z,54.80
2022-09-12T18:23:21.509Z,54.70
2022-09-12T18:25:23.499Z,55.00
2022-09-12T18:27:25.254Z,55.10
2022-09-12T18:29:27.973Z,55.10
2022-09-12T18:31:30.211Z,55.20
2022-09-12T18:33:32.134Z,55.20
2022-09-12T18:35:33.960Z,55.30
2022-09-12T18:37:35.650Z,55.30
2022-09-12T18:39:37.293Z,55.40
2022-09-12T18:41:39.446Z,55.40
2022-09-12T18:43:41.367Z,55.40
2022-09-12T18:45:43.036Z,55.60
2022-09-12T18:47:44.646Z,55.60
2022-09-12T18:49:46.308Z,55.60
2022-09-12T18:51:48.074Z,55.60
2022-09-12T18:53:52.068Z,55.70
2022-09-12T18:55:59.472Z,55.70
2022-09-12T18:58:01.221Z,55.80
2022-09-12T19:00:07.267Z,55.80
2022-09-12T19:02:15.504Z,55.80
2022-09-12T19:04:17.313Z,55.90
2022-09-12T19:06:29.198Z,56.00
2022-09-12T19:08:30.864Z,56.10
2022-09-12T19:10:32.845Z,56.20
2022-09-12T19:12:34.745Z,56.10
2022-09-12T19:14:36.425Z,56.10
2022-09-12T19:16:38.149Z,56.20
2022-09-12T19:18:40.353Z,56.30
2022-09-12T19:20:42.034Z,56.30
2022-09-12T19:22:44.233Z,56.30
2022-09-12T19:24:45.882Z,56.30
2022-09-12T19:26:49.493Z,56.30
2022-09-12T19:28:51.321Z,56.30
2022-09-12T19:30:53.543Z,56.30
2022-09-12T19:32:55.236Z,56.40
2022-09-12T19:34:56.975Z,56.40
2022-09-12T19:36:59.408Z,56.40
2022-09-12T19:39:01.070Z,56.50
2022-09-12T19:41:04.519Z,56.50
2022-09-12T19:43:06.874Z,56.60
2022-09-12T19:45:08.766Z,56.60
2022-09-12T19:47:11.169Z,56.60
2022-09-12T19:49:13.036Z,56.90
2022-09-12T19:51:15.426Z,56.80
2022-09-12T19:53:17.811Z,56.80
2022-09-12T19:55:19.823Z,56.90
2022-09-12T19:57:21.508Z,56.90
2022-09-12T19:59:23.148Z,56.90
2022-09-12T20:01:28.501Z,57.10
2022-09-12T20:03:30.600Z,57.00
2022-09-12T20:05:33.280Z,57.10
2022-09-12T20:07:35.026Z,57.10
2022-09-12T20:09:36.679Z,57.30
2022-09-12T20:11:38.346Z,57.20
2022-09-12T20:13:40.172Z,57.20
2022-09-12T20:15:41.972Z,57.30
2022-09-12T20:17:43.740Z,57.30
2022-09-12T20:19:45.385Z,57.30
2022-09-12T20:21:47.035Z,57.40
2022-09-12T20:23:49.444Z,57.40
2022-09-12T20:25:51.247Z,57.50
2022-09-12T20:27:55.934Z,57.40
2022-09-12T20:30:01.243Z,57.50
2022-09-12T20:32:03.552Z,57.60
2022-09-12T20:34:05.673Z,57.70
2022-09-12T20:36:08.754Z,57.60
2022-09-12T20:38:10.363Z,57.50
2022-09-12T20:40:12.205Z,57.60
2022-09-12T20:42:13.862Z,57.60
2022-09-12T20:44:15.546Z,57.80
2022-09-12T20:46:21.421Z,57.80
2022-09-12T20:48:24.125Z,57.90
2022-09-12T20:50:26.013Z,57.80
2022-09-12T20:52:27.642Z,58.00
2022-09-12T20:54:29.222Z,58.00
2022-09-12T20:56:31.841Z,58.00
2022-09-12T20:58:33.971Z,58.10
2022-09-12T21:00:37.985Z,58.10
2022-09-12T21:02:39.671Z,58.30
2022-09-12T21:04:41.494Z,58.40
2022-09-12T21:06:43.111Z,58.40
2022-09-12T21:08:45.538Z,58.40
2022-09-12T21:10:47.165Z,58.50
2022-09-12T21:12:48.764Z,58.40
2022-09-12T21:14:50.439Z,58.40
2022-09-12T21:16:52.147Z,58.40
2022-09-12T21:18:58.288Z,58.40
2022-09-12T21:20:59.994Z,58.40
2022-09-12T21:23:01.635Z,58.30
2022-09-12T21:25:03.479Z,58.40
2022-09-12T21:27:05.115Z,58.50
2022-09-12T21:29:06.710Z,58.40
2022-09-12T21:31:09.104Z,58.50
2022-09-12T21:33:10.762Z,58.60
2022-09-12T21:35:12.394Z,58.80
2022-09-12T21:37:14.031Z,58.60
2022-09-12T21:39:15.613Z,58.60
2022-09-12T21:41:17.301Z,58.80
2022-09-12T21:43:18.944Z,58.80
2022-09-12T21:45:20.582Z,58.60
2022-09-12T21:47:22.243Z,58.80
2022-09-12T21:49:23.994Z,58.80
2022-09-12T21:51:25.662Z,58.70
2022-09-12T21:53:27.387Z,58.80
2022-09-12T21:55:29.133Z,58.80
2022-09-12T21:57:33.941Z,58.80
2022-09-12T21:59:35.662Z,58.90
2022-09-12T22:01:37.363Z,59.10
2022-09-12T22:03:39.031Z,59.10
2022-09-12T22:05:40.828Z,59.30
2022-09-12T22:07:42.445Z,59.20
2022-09-12T22:09:44.039Z,59.20
2022-09-12T22:11:46.824Z,59.30
2022-09-12T22:13:48.500Z,59.20
2022-09-12T22:15:51.218Z,59.20
2022-09-12T22:17:52.869Z,59.20
2022-09-12T22:19:54.487Z,59.30
2022-09-12T22:22:14.571Z,59.20
2022-09-12T22:24:28.059Z,59.20
2022-09-12T22:26:30.012Z,59.20
2022-09-12T22:28:32.184Z,59.30
2022-09-12T22:30:33.903Z,59.30
2022-09-12T22:32:37.268Z,59.20
2022-09-12T22:34:39.036Z,59.30
2022-09-12T22:36:40.734Z,59.20
2022-09-12T22:38:42.354Z,59.40
2022-09-12T22:40:44.013Z,59.50
2022-09-12T22:42:45.712Z,59.60
2022-09-12T22:44:47.302Z,59.80
2022-09-12T22:46:48.971Z,60.40
2022-09-12T22:48:50.640Z,59.70
2022-09-12T22:50:52.442Z,59.70
2022-09-12T22:52:54.050Z,59.70
2022-09-12T22:54:55.598Z,59.60
2022-09-12T22:56:57.201Z,59.60
2022-09-12T22:58:58.812Z,59.50
2022-09-12T23:01:00.587Z,59.60
2022-09-12T23:03:02.332Z,59.50
2022-09-12T23:05:04.148Z,59.60
2022-09-12T23:07:05.751Z,59.60
2022-09-12T23:09:07.356Z,59.60
2022-09-12T23:11:10.173Z,59.70
2022-09-12T23:13:11.795Z,59.80
2022-09-12T23:15:13.543Z,59.70
2022-09-12T23:17:15.151Z,59.80
2022-09-12T23:19:16.800Z,59.70
2022-09-12T23:21:20.228Z,59.70
2022-09-12T23:23:21.805Z,59.90
2022-09-12T23:25:26.237Z,59.90
2022-09-12T23:27:28.305Z,59.90
2022-09-12T23:29:29.906Z,59.80
2022-09-12T23:31:32.223Z,59.90
2022-09-12T23:33:33.889Z,59.70
2022-09-12T23:35:35.547Z,59.80
2022-09-12T23:37:37.211Z,59.90
2022-09-12T23:39:38.922Z,60.00
2022-09-12T23:41:40.656Z,60.10
2022-09-12T23:43:43.034Z,60.10
2022-09-12T23:45:44.659Z,59.90
2022-09-12T23:47:46.477Z,60.00
2022-09-12T23:49:48.072Z,59.90
2022-09-12T23:51:49.722Z,59.90
2022-09-12T23:53:51.355Z,60.60
2022-09-12T23:55:53.194Z,59.90
2022-09-12T23:57:54.787Z,59.90
2022-09-12T23:59:56.443Z,59.90
